Time;durP1;ratioP1;P1;durP2;ratioP2;P2;SDS_P1;SDS_P2;PMS_P1;PMS_P2;Temp;Humidity;BMP_temperature;BMP_pressure;BME280_temperature;BME280_humidity;BME280_pressure;Samples;Min_cycle;Max_cycle;Signal;HPM_P1;HPM_P2
2023/04/15 00:00:14;;;;;;;6.40;3.60;;;;;;;;;;5038601;28;20052;-68
2023/04/15 00:02:40;;;;;;;6.65;3.65;;;;;;;;;;5039067;28;20052;-68
2023/04/15 00:05:06;;;;;;;7.00;4.05;;;;;;;;;;5041226;28;20049;-68
2023/04/15 00:07:31;;;;;;;7.53;3.72;;;;;;;;;;5033995;28;20051;-68
2023/04/15 00:09:57;;;;;;;6.38;3.67;;;;;;;;;;5037845;28;20060;-68
2023/04/15 00:12:24;;;;;;;6.03;3.83;;;;;;;;;;5031107;28;20033;-68
2023/04/15 00:14:50;;;;;;;7.13;3.88;;;;;;;;;;5039747;28;20013;-68
2023/04/15 00:17:15;;;;;;;5.70;3.63;;;;;;;;;;5043663;28;20047;-68
2023/04/15 00:19:41;;;;;;;7.03;3.95;;;;;;;;;;5033209;28;20048;-68
2023/04/15 00:22:07;;;;;;;5.40;3.55;;;;;;;;;;5028018;28;20098;-68
2023/04/15 00:24:32;;;;;;;5.72;3.45;;;;;;;;;;5043331;28;20032;-68
2023/04/15 00:26:58;;;;;;;6.47;3.88;;;;;;;;;;5039916;28;20517;-68
2023/04/15 00:29:24;;;;;;;6.78;4.13;;;;;;;;;;5037981;28;20537;-68
2023/04/15 00:31:49;;;;;;;5.97;3.95;;;;;;;;;;5031715;28;20757;-68
2023/04/15 00:34:15;;;;;;;6.85;4.60;;;;;;;;;;5042586;28;20522;-68
2023/04/15 00:36:41;;;;;;;8.32;4.40;;;;;;;;;;5044409;28;20033;-68
2023/04/15 00:39:06;;;;;;;10.60;5.07;;;;;;;;;;5046957;28;20461;-68
2023/04/15 00:41:33;;;;;;;5.78;4.00;;;;;;;;;;5049073;28;20043;-68
2023/04/15 00:43:59;;;;;;;8.20;4.03;;;;;;;;;;5054668;28;20033;-68
2023/04/15 00:46:27;;;;;;;7.47;4.22;;;;;;;;;;5030599;28;20041;-68
2023/04/15 00:48:53;;;;;;;6.97;4.22;;;;;;;;;;5043672;28;20079;-68
2023/04/15 00:51:19;;;;;;;6.20;4.05;;;;;;;;;;5039425;28;20024;-68
2023/04/15 00:53:44;;;;;;;8.55;4.32;;;;;;;;;;5042389;28;20032;-68
2023/04/15 00:56:09;;;;;;;6.50;3.63;;;;;;;;;;5033723;28;20098;-68
2023/04/15 00:58:35;;;;;;;8.05;3.72;;;;;;;;;;5041484;28;20083;-68
2023/04/15 01:01:01;;;;;;;6.30;4.03;;;;;;;;;;5043556;28;20113;-68
2023/04/15 01:03:28;;;;;;;7.93;4.30;;;;;;;;;;5029249;28;20494;-68
2023/04/15 01:05:57;;;;;;;9.38;4.32;;;;;;;;;;5041658;28;20045;-68
2023/04/15 01:08:28;;;;;;;6.90;3.97;;;;;;;;;;5039175;28;20121;-68
2023/04/15 01:10:55;;;;;;;6.93;3.97;;;;;;;;;;5024607;28;20033;-68
2023/04/15 01:13:22;;;;;;;7.53;3.88;;;;;;;;;;5040000;28;20091;-68
2023/04/15 01:15:48;;;;;;;7.40;3.67;;;;;;;;;;5038653;28;20037;-68
2023/04/15 01:18:14;;;;;;;6.60;3.78;;;;;;;;;;5047937;28;20021;-68
2023/04/15 01:20:39;;;;;;;6.68;3.90;;;;;;;;;;5034948;28;20044;-68
2023/04/15 01:23:05;;;;;;;6.93;3.92;;;;;;;;;;5042982;28;20091;-68
2023/04/15 01:25:32;;;;;;;8.75;3.78;;;;;;;;;;5041239;28;20265;-68
2023/04/15 01:27:58;;;;;;;6.53;3.60;;;;;;;;;;5037124;28;20120;-68
2023/04/15 01:30:24;;;;;;;5.25;3.15;;;;;;;;;;5045827;28;20837;-68
2023/04/15 01:32:50;;;;;;;4.82;3.13;;;;;;;;;;5044490;28;20025;-68
2023/04/15 01:35:16;;;;;;;5.78;3.60;;;;;;;;;;5025399;28;20519;-68
2023/04/15 01:37:41;;;;;;;5.97;3.15;;;;;;;;;;5029625;28;20040;-68
2023/04/15 01:40:07;;;;;;;5.15;3.03;;;;;;;;;;5038809;28;20044;-68
2023/04/15 01:42:35;;;;;;;6.47;3.50;;;;;;;;;;5038743;28;20037;-68
2023/04/15 01:45:00;;;;;;;5.72;3.05;;;;;;;;;;5045393;28;20098;-68
2023/04/15 01:47:26;;;;;;;6.60;3.67;;;;;;;;;;5046535;28;20036;-68
2023/04/15 01:49:51;;;;;;;6.93;3.30;;;;;;;;;;5037517;28;20430;-68
2023/04/15 01:52:17;;;;;;;5.00;3.40;;;;;;;;;;5030010;28;20048;-68
2023/04/15 01:54:42;;;;;;;4.70;2.90;;;;;;;;;;5042478;28;20037;-68
2023/04/15 01:57:08;;;;;;;6.63;3.00;;;;;;;;;;5041908;28;20051;-68
2023/04/15 01:59:34;;;;;;;6.90;3.30;;;;;;;;;;5044741;28;20032;-68
2023/04/15 02:01:59;;;;;;;5.55;3.50;;;;;;;;;;5035098;28;20048;-68
2023/04/15 02:04:24;;;;;;;5.68;3.17;;;;;;;;;;5051941;28;20045;-68
2023/04/15 02:06:50;;;;;;;6.78;3.45;;;;;;;;;;5057408;28;20032;-68
2023/04/15 02:09:15;;;;;;;7.95;3.58;;;;;;;;;;5047560;28;20020;-68
2023/04/15 02:11:41;;;;;;;6.53;4.07;;;;;;;;;;5046161;28;20574;-68
2023/04/15 02:14:06;;;;;;;6.15;3.67;;;;;;;;;;5043217;28;20041;-68
2023/04/15 02:16:32;;;;;;;5.70;3.10;;;;;;;;;;5032968;28;20470;-68
2023/04/15 02:18:58;;;;;;;4.88;3.22;;;;;;;;;;5045754;28;20033;-68
2023/04/15 02:21:25;;;;;;;6.10;3.78;;;;;;;;;;5033741;28;20033;-68
2023/04/15 02:23:52;;;;;;;6.47;3.63;;;;;;;;;;5044026;28;20580;-68
2023/04/15 02:26:18;;;;;;;7.30;3.55;;;;;;;;;;5033226;28;20068;-68
2023/04/15 02:28:43;;;;;;;6.15;3.80;;;;;;;;;;5036364;28;20068;-68
2023/04/15 02:31:08;;;;;;;5.57;3.50;;;;;;;;;;5043873;28;20064;-68
2023/04/15 02:33:34;;;;;;;5.72;3.42;;;;;;;;;;5026535;28;20030;-68
2023/04/15 02:35:59;;;;;;;6.63;3.40;;;;;;;;;;5040665;28;20048;-68
2023/04/15 02:38:25;;;;;;;6.47;3.70;;;;;;;;;;5045837;28;20033;-68
2023/04/15 02:40:50;;;;;;;5.88;3.38;;;;;;;;;;5043829;28;20036;-68
2023/04/15 02:43:16;;;;;;;5.85;3.33;;;;;;;;;;5045130;28;20071;-68
2023/04/15 02:45:42;;;;;;;5.55;2.70;;;;;;;;;;5041330;28;20056;-68
2023/04/15 02:48:08;;;;;;;3.45;2.35;;;;;;;;;;5043706;28;20036;-68
2023/04/15 02:50:34;;;;;;;4.28;2.75;;;;;;;;;;5040459;28;20083;-68
2023/04/15 02:53:03;;;;;;;4.55;2.58;;;;;;;;;;5034676;28;20037;-68
2023/04/15 02:55:28;;;;;;;6.05;2.70;;;;;;;;;;5013541;28;20801;-68
2023/04/15 02:57:53;;;;;;;4.10;2.90;;;;;;;;;;5026079;28;20029;-68
2023/04/15 03:00:19;;;;;;;5.63;3.10;;;;;;;;;;5043053;28;20025;-68
2023/04/15 03:02:45;;;;;;;6.63;2.97;;;;;;;;;;5038643;28;20029;-68
2023/04/15 03:05:12;;;;;;;4.53;3.00;;;;;;;;;;5027424;28;20757;-68
2023/04/15 03:07:39;;;;;;;4.43;2.65;;;;;;;;;;5044965;28;20115;-68
2023/04/15 03:10:05;;;;;;;7.20;2.88;;;;;;;;;;5036320;28;20045;-68
2023/04/15 03:12:30;;;;;;;5.03;2.92;;;;;;;;;;5036773;28;20031;-68
2023/04/15 03:14:55;;;;;;;4.35;2.78;;;;;;;;;;5043734;28;20025;-68
2023/04/15 03:17:21;;;;;;;5.25;3.15;;;;;;;;;;5043017;28;20040;-68
2023/04/15 03:19:46;;;;;;;5.40;2.92;;;;;;;;;;5040205;28;20049;-68
2023/04/15 03:22:11;;;;;;;6.47;3.30;;;;;;;;;;5044069;28;20063;-68
2023/04/15 03:24:36;;;;;;;5.57;3.60;;;;;;;;;;5043556;28;20565;-68
2023/04/15 03:27:02;;;;;;;5.55;3.25;;;;;;;;;;5029213;28;20386;-68
2023/04/15 03:29:27;;;;;;;5.22;3.10;;;;;;;;;;5051169;28;20538;-69
2023/04/15 03:31:52;;;;;;;5.97;3.17;;;;;;;;;;5029555;28;20033;-68
2023/04/15 03:34:18;;;;;;;5.45;3.28;;;;;;;;;;5029526;28;20522;-68
2023/04/15 03:36:43;;;;;;;5.32;3.45;;;;;;;;;;5040068;28;20044;-68
2023/04/15 03:39:09;;;;;;;4.85;3.08;;;;;;;;;;5044738;28;20517;-68
2023/04/15 03:41:34;;;;;;;6.55;3.10;;;;;;;;;;5036437;28;20037;-68
2023/04/15 03:43:59;;;;;;;5.57;3.20;;;;;;;;;;5041048;28;20117;-68
2023/04/15 03:46:25;;;;;;;7.85;3.63;;;;;;;;;;5034455;28;20064;-68
2023/04/15 03:48:50;;;;;;;5.43;3.33;;;;;;;;;;5041557;28;20049;-68
2023/04/15 03:51:16;;;;;;;6.32;3.83;;;;;;;;;;5037956;28;20494;-68
2023/04/15 03:53:41;;;;;;;6.28;3.60;;;;;;;;;;5039786;28;20075;-68
2023/04/15 03:56:06;;;;;;;7.20;3.83;;;;;;;;;;5024686;28;20044;-68
2023/04/15 03:58:32;;;;;;;6.28;3.88;;;;;;;;;;5026185;28;20043;-68
2023/04/15 04:00:57;;;;;;;6.22;3.47;;;;;;;;;;5035427;28;20026;-68
2023/04/15 04:03:22;;;;;;;5.60;3.10;;;;;;;;;;5040834;28;20031;-68
2023/04/15 04:05:48;;;;;;;5.65;3.63;;;;;;;;;;5035157;28;20045;-68
2023/04/15 04:08:15;;;;;;;7.15;3.70;;;;;;;;;;5042256;28;20068;-68
2023/04/15 04:10:40;;;;;;;6.63;3.42;;;;;;;;;;5044339;28;20049;-68
2023/04/15 04:13:06;;;;;;;5.90;3.38;;;;;;;;;;5035501;28;20064;-68
2023/04/15 04:15:31;;;;;;;5.53;3.22;;;;;;;;;;5035223;28;20076;-68
2023/04/15 04:17:56;;;;;;;6.13;3.22;;;;;;;;;;5043049;28;20056;-68
2023/04/15 04:20:22;;;;;;;5.80;3.72;;;;;;;;;;5043864;28;20033;-68
2023/04/15 04:22:47;;;;;;;8.07;3.58;;;;;;;;;;5033520;28;20064;-68
2023/04/15 04:25:13;;;;;;;5.78;3.08;;;;;;;;;;5042212;28;20029;-68
2023/04/15 04:27:38;;;;;;;5.70;3.30;;;;;;;;;;5039027;28;20055;-69
2023/04/15 04:30:05;;;;;;;5.97;3.30;;;;;;;;;;5042321;28;20036;-69
2023/04/15 04:32:31;;;;;;;5.38;3.13;;;;;;;;;;5044559;28;20033;-68
2023/04/15 04:34:56;;;;;;;6.30;3.20;;;;;;;;;;5023885;28;20029;-68
2023/04/15 04:37:22;;;;;;;6.60;3.45;;;;;;;;;;5023495;28;20086;-68
2023/04/15 04:39:47;;;;;;;5.03;3.35;;;;;;;;;;5038939;28;20033;-68
2023/04/15 04:42:13;;;;;;;6.13;3.47;;;;;;;;;;5043600;28;20028;-68
2023/04/15 04:44:38;;;;;;;7.18;3.67;;;;;;;;;;5028654;28;20127;-68
2023/04/15 04:47:03;;;;;;;7.95;4.22;;;;;;;;;;5045306;28;20044;-68
2023/04/15 04:49:29;;;;;;;5.90;3.65;;;;;;;;;;5032962;28;20513;-68
2023/04/15 04:51:54;;;;;;;8.93;4.47;;;;;;;;;;5036888;28;20057;-68
2023/04/15 04:54:20;;;;;;;8.13;4.72;;;;;;;;;;5046818;28;20043;-68
2023/04/15 04:56:45;;;;;;;11.13;5.13;;;;;;;;;;5036295;28;20561;-68
2023/04/15 04:59:11;;;;;;;10.75;5.45;;;;;;;;;;5047335;28;20436;-68
2023/04/15 05:01:36;;;;;;;9.60;5.10;;;;;;;;;;5034588;28;20136;-68
2023/04/15 05:04:03;;;;;;;12.48;5.97;;;;;;;;;;5033396;28;20033;-68
2023/04/15 05:06:30;;;;;;;12.75;7.00;;;;;;;;;;5046243;28;20021;-68
2023/04/15 05:08:55;;;;;;;11.05;6.82;;;;;;;;;;5033189;28;20040;-68
2023/04/15 05:11:20;;;;;;;17.27;6.43;;;;;;;;;;5047507;28;20040;-68
2023/04/15 05:13:46;;;;;;;14.45;7.25;;;;;;;;;;5035029;28;20025;-68
2023/04/15 05:16:11;;;;;;;15.30;7.72;;;;;;;;;;5046617;28;20059;-68
2023/04/15 05:18:37;;;;;;;12.43;6.10;;;;;;;;;;5043516;28;20731;-68
2023/04/15 05:21:02;;;;;;;16.23;8.43;;;;;;;;;;5042324;28;20548;-68
2023/04/15 05:23:27;;;;;;;15.65;8.32;;;;;;;;;;5032927;28;20492;-68
2023/04/15 05:25:53;;;;;;;13.07;7.57;;;;;;;;;;5045935;28;20029;-68
2023/04/15 05:28:18;;;;;;;19.67;9.23;;;;;;;;;;5041947;28;20054;-68
2023/04/15 05:30:43;;;;;;;21.08;9.00;;;;;;;;;;5035309;28;20075;-68
2023/04/15 05:33:09;;;;;;;15.00;8.18;;;;;;;;;;5041155;28;20457;-68
2023/04/15 05:35:35;;;;;;;17.50;8.18;;;;;;;;;;5039836;28;20025;-68
2023/04/15 05:38:00;;;;;;;19.17;8.70;;;;;;;;;;5043834;28;20033;-68
2023/04/15 05:40:26;;;;;;;18.45;9.57;;;;;;;;;;5036455;28;20060;-68
2023/04/15 05:42:51;;;;;;;17.30;9.10;;;;;;;;;;5033380;28;20056;-68
2023/04/15 05:45:16;;;;;;;18.30;8.85;;;;;;;;;;5038675;28;20462;-68
2023/04/15 05:47:42;;;;;;;17.85;8.60;;;;;;;;;;5036359;28;20135;-68
2023/04/15 05:50:07;;;;;;;17.15;8.45;;;;;;;;;;5043845;28;20037;-68
2023/04/15 05:52:33;;;;;;;17.33;8.65;;;;;;;;;;5029216;28;20029;-68
2023/04/15 05:54:58;;;;;;;14.38;8.25;;;;;;;;;;5026597;28;20029;-68
2023/04/15 05:57:23;;;;;;;19.35;8.05;;;;;;;;;;5031747;28;20029;-68
2023/04/15 05:59:51;;;;;;;16.13;7.70;;;;;;;;;;5033840;28;20498;-68
2023/04/15 06:02:16;;;;;;;17.92;8.63;;;;;;;;;;5045102;28;20044;-68
2023/04/15 06:04:41;;;;;;;14.10;7.25;;;;;;;;;;5035833;28;20046;-68
2023/04/15 06:07:07;;;;;;;15.75;7.90;;;;;;;;;;5043349;28;20058;-68
2023/04/15 06:09:32;;;;;;;16.48;8.18;;;;;;;;;;5047094;28;20044;-68
2023/04/15 06:11:57;;;;;;;17.30;8.43;;;;;;;;;;5028751;28;20022;-68
2023/04/15 06:14:23;;;;;;;15.75;7.43;;;;;;;;;;5045853;28;20032;-68
2023/04/15 06:16:48;;;;;;;14.75;7.63;;;;;;;;;;5055518;28;20044;-68
2023/04/15 06:19:13;;;;;;;13.73;7.45;;;;;;;;;;5045033;28;20041;-68
2023/04/15 06:21:39;;;;;;;12.95;7.22;;;;;;;;;;5030267;28;20391;-68
2023/04/15 06:24:04;;;;;;;16.38;7.30;;;;;;;;;;5027270;28;20457;-68
2023/04/15 06:26:30;;;;;;;12.30;6.88;;;;;;;;;;5025890;28;20037;-68
2023/04/15 06:28:55;;;;;;;17.58;7.38;;;;;;;;;;5025641;28;20046;-68
2023/04/15 06:31:21;;;;;;;17.13;7.95;;;;;;;;;;5040537;28;20032;-68
2023/04/15 06:33:46;;;;;;;15.70;7.03;;;;;;;;;;5045678;28;20529;-68
2023/04/15 06:36:12;;;;;;;13.82;7.35;;;;;;;;;;5029244;28;20048;-69
2023/04/15 06:38:37;;;;;;;14.52;7.28;;;;;;;;;;5024799;28;20049;-69
2023/04/15 06:41:03;;;;;;;12.38;7.05;;;;;;;;;;5039182;28;20043;-68
2023/04/15 06:43:29;;;;;;;13.07;7.28;;;;;;;;;;5032763;28;20041;-68
2023/04/15 06:45:55;;;;;;;12.60;6.28;;;;;;;;;;5039356;28;20683;-68
2023/04/15 06:48:21;;;;;;;11.23;6.18;;;;;;;;;;5044184;28;20033;-68
2023/04/15 06:50:47;;;;;;;12.18;5.30;;;;;;;;;;5030700;28;20030;-68
2023/04/15 06:53:13;;;;;;;7.03;4.25;;;;;;;;;;5034390;28;20048;-68
2023/04/15 06:55:39;;;;;;;8.10;4.03;;;;;;;;;;5032455;28;20033;-68
2023/04/15 06:58:04;;;;;;;7.10;3.58;;;;;;;;;;5038943;28;20557;-68
2023/04/15 07:00:30;;;;;;;6.68;3.95;;;;;;;;;;5037436;28;20098;-68
2023/04/15 07:02:55;;;;;;;7.43;3.90;;;;;;;;;;5044729;28;20501;-68
2023/04/15 07:05:20;;;;;;;8.95;3.92;;;;;;;;;;5042061;28;20183;-68
2023/04/15 07:07:46;;;;;;;7.53;3.72;;;;;;;;;;5045337;28;20060;-68
2023/04/15 07:10:11;;;;;;;11.40;5.45;;;;;;;;;;5031525;28;20051;-68
2023/04/15 07:12:36;;;;;;;7.65;4.30;;;;;;;;;;5041472;28;20180;-69
2023/04/15 07:15:03;;;;;;;6.68;3.58;;;;;;;;;;5044152;28;20024;-68
2023/04/15 07:17:28;;;;;;;7.40;4.00;;;;;;;;;;5044852;28;20049;-68
2023/04/15 07:19:53;;;;;;;6.57;4.13;;;;;;;;;;5030505;28;20049;-69
2023/04/15 07:22:19;;;;;;;6.35;4.13;;;;;;;;;;5044300;28;20041;-69
2023/04/15 07:24:45;;;;;;;7.68;3.78;;;;;;;;;;5031791;28;20029;-68
2023/04/15 07:27:10;;;;;;;10.00;4.32;;;;;;;;;;5041732;28;20030;-68
2023/04/15 07:29:36;;;;;;;6.50;4.03;;;;;;;;;;5031968;28;20040;-68
2023/04/15 07:32:01;;;;;;;7.22;3.90;;;;;;;;;;5041982;28;20374;-69
2023/04/15 07:34:27;;;;;;;8.57;4.05;;;;;;;;;;5031943;28;20064;-68
2023/04/15 07:36:53;;;;;;;7.90;4.55;;;;;;;;;;5029493;28;20120;-69
2023/04/15 07:39:18;;;;;;;5.45;3.35;;;;;;;;;;5043290;28;20043;-69
2023/04/15 07:41:43;;;;;;;8.70;4.28;;;;;;;;;;5040811;28;20021;-70
2023/04/15 07:44:09;;;;;;;5.07;3.42;;;;;;;;;;5040134;28;20153;-69
2023/04/15 07:46:36;;;;;;;6.85;4.22;;;;;;;;;;5036916;28;20055;-69
2023/04/15 07:49:01;;;;;;;9.98;4.05;;;;;;;;;;5033431;28;20090;-69
2023/04/15 07:51:28;;;;;;;7.15;4.07;;;;;;;;;;5031910;28;20021;-68
2023/04/15 07:53:53;;;;;;;8.23;4.28;;;;;;;;;;5035059;28;20025;-69
2023/04/15 07:56:19;;;;;;;4.25;3.08;;;;;;;;;;5034195;28;20033;-69
2023/04/15 07:58:45;;;;;;;7.93;3.67;;;;;;;;;;5037230;28;20056;-69
2023/04/15 08:01:10;;;;;;;7.38;3.65;;;;;;;;;;5038763;28;20044;-69
2023/04/15 08:03:36;;;;;;;8.55;3.78;;;;;;;;;;5037074;28;20033;-69
2023/04/15 08:06:01;;;;;;;8.40;4.60;;;;;;;;;;5038166;28;20099;-69
2023/04/15 08:08:27;;;;;;;10.75;4.70;;;;;;;;;;5040936;28;20048;-69
2023/04/15 08:10:52;;;;;;;7.35;3.67;;;;;;;;;;5040610;28;20117;-69
2023/04/15 08:13:17;;;;;;;8.48;4.30;;;;;;;;;;5041087;28;20170;-69
2023/04/15 08:15:43;;;;;;;9.85;4.38;;;;;;;;;;5043299;28;20108;-69
2023/04/15 08:18:08;;;;;;;6.55;4.20;;;;;;;;;;5040236;28;20028;-69
2023/04/15 08:20:34;;;;;;;6.97;4.15;;;;;;;;;;5040714;28;20057;-69
2023/04/15 08:22:59;;;;;;;10.90;4.45;;;;;;;;;;5038804;28;20061;-68
2023/04/15 08:25:25;;;;;;;8.00;4.20;;;;;;;;;;5034347;28;20414;-69
2023/04/15 08:27:50;;;;;;;10.65;4.68;;;;;;;;;;5028404;28;20392;-69
2023/04/15 08:30:16;;;;;;;9.73;5.10;;;;;;;;;;5030126;28;20025;-68
2023/04/15 08:32:45;;;;;;;9.32;5.68;;;;;;;;;;5039625;28;20037;-69
2023/04/15 08:35:10;;;;;;;10.68;5.82;;;;;;;;;;5040595;28;20025;-69
2023/04/15 08:37:35;;;;;;;11.75;5.72;;;;;;;;;;5035845;28;20033;-69
2023/04/15 08:40:01;;;;;;;8.27;5.40;;;;;;;;;;5041068;28;20033;-69
2023/04/15 08:42:33;;;;;;;11.80;5.72;;;;;;;;;;5046411;28;20047;-69
2023/04/15 08:45:02;;;;;;;8.88;4.65;;;;;;;;;;5044387;28;20025;-69
2023/04/15 08:47:30;;;;;;;11.52;5.57;;;;;;;;;;5044109;28;20033;-68
2023/04/15 08:49:57;;;;;;;11.35;5.35;;;;;;;;;;5043625;28;20116;-68
2023/04/15 08:52:25;;;;;;;11.20;5.78;;;;;;;;;;5045061;28;20094;-68
2023/04/15 08:54:53;;;;;;;12.93;5.45;;;;;;;;;;5041331;28;20083;-68
2023/04/15 08:57:19;;;;;;;8.90;5.22;;;;;;;;;;5042083;28;20020;-69
2023/04/15 08:59:45;;;;;;;10.32;5.25;;;;;;;;;;5048252;28;20417;-69
2023/04/15 09:02:10;;;;;;;8.65;5.38;;;;;;;;;;5059882;28;20120;-69
2023/04/15 09:04:36;;;;;;;10.43;6.28;;;;;;;;;;5050587;28;20084;-69
2023/04/15 09:07:01;;;;;;;13.23;6.90;;;;;;;;;;5031000;28;20034;-69
2023/04/15 09:09:26;;;;;;;11.80;6.30;;;;;;;;;;5033735;28;20490;-69
2023/04/15 09:11:52;;;;;;;14.65;5.93;;;;;;;;;;5030873;28;20139;-69
2023/04/15 09:14:17;;;;;;;14.63;6.22;;;;;;;;;;5039934;28;20123;-69
2023/04/15 09:16:57;;;;;;;16.48;7.43;;;;;;;;;;5041220;28;20049;-70
2023/04/15 09:19:23;;;;;;;13.68;6.35;;;;;;;;;;5047441;28;20029;-70
2023/04/15 09:21:52;;;;;;;10.98;5.55;;;;;;;;;;5031255;28;20030;-70
2023/04/15 09:24:17;;;;;;;13.63;6.50;;;;;;;;;;5027878;28;20074;-70
2023/04/15 09:26:43;;;;;;;14.20;7.93;;;;;;;;;;5031140;28;20024;-70
2023/04/15 09:29:12;;;;;;;12.43;7.75;;;;;;;;;;5041674;28;20033;-70
2023/04/15 09:31:38;;;;;;;12.27;7.55;;;;;;;;;;5037412;28;20029;-70
2023/04/15 09:34:04;;;;;;;16.20;8.90;;;;;;;;;;5037595;28;20457;-70
2023/04/15 09:36:40;;;;;;;12.02;6.97;;;;;;;;;;5045468;28;20021;-70
2023/04/15 09:39:05;;;;;;;15.30;5.38;;;;;;;;;;5046678;28;20032;-70
2023/04/15 09:41:31;;;;;;;15.20;8.38;;;;;;;;;;5043718;28;20037;-70
2023/04/15 09:43:56;;;;;;;19.88;7.88;;;;;;;;;;5048174;28;20033;-70
2023/04/15 09:46:40;;;;;;;13.75;7.20;;;;;;;;;;5044487;28;20053;-70
2023/04/15 09:49:10;;;;;;;18.05;8.30;;;;;;;;;;5043532;28;20044;-71
2023/04/15 09:51:36;;;;;;;21.25;8.88;;;;;;;;;;5026196;28;20031;-71
2023/04/15 09:54:02;;;;;;;16.00;8.30;;;;;;;;;;5044601;28;20068;-70
2023/04/15 09:56:37;;;;;;;12.50;7.93;;;;;;;;;;5044630;28;20479;-70
2023/04/15 09:59:06;;;;;;;13.50;7.28;;;;;;;;;;5044983;28;20037;-71
2023/04/15 10:01:32;;;;;;;13.63;7.25;;;;;;;;;;5046981;28;20033;-70
2023/04/15 10:04:01;;;;;;;14.90;7.60;;;;;;;;;;5043559;28;20035;-70
2023/04/15 10:06:26;;;;;;;13.85;8.50;;;;;;;;;;5044251;28;20044;-70
2023/04/15 10:08:53;;;;;;;12.52;8.25;;;;;;;;;;5044160;28;20494;-70
2023/04/15 10:11:20;;;;;;;17.30;9.35;;;;;;;;;;5045801;28;20090;-70
2023/04/15 10:13:46;;;;;;;16.45;8.60;;;;;;;;;;5046136;28;20037;-70
2023/04/15 10:16:15;;;;;;;20.17;9.55;;;;;;;;;;5038078;28;20037;-70
2023/04/15 10:18:44;;;;;;;15.55;8.18;;;;;;;;;;5038723;28;20033;-69
2023/04/15 10:21:10;;;;;;;15.38;8.52;;;;;;;;;;5039067;28;20510;-69
2023/04/15 10:23:35;;;;;;;15.88;8.30;;;;;;;;;;5046012;28;20093;-69
2023/04/15 10:26:03;;;;;;;17.70;8.50;;;;;;;;;;5052553;28;20033;-70
2023/04/15 10:28:28;;;;;;;14.68;8.38;;;;;;;;;;5044461;28;20036;-67
2023/04/15 10:30:53;;;;;;;18.02;9.48;;;;;;;;;;5028194;28;20038;-67
2023/04/15 10:33:22;;;;;;;19.05;9.00;;;;;;;;;;5042572;28;20113;-67
2023/04/15 10:35:48;;;;;;;18.45;9.13;;;;;;;;;;5045463;28;20410;-70
2023/04/15 10:38:37;;;;;;;17.63;9.02;;;;;;;;;;5043729;28;20033;-69
2023/04/15 10:41:22;;;;;;;16.15;9.35;;;;;;;;;;5029831;28;20123;-69
2023/04/15 10:43:51;;;;;;;14.13;8.60;;;;;;;;;;5035020;28;20040;-70
2023/04/15 10:46:36;;;;;;;19.98;9.02;;;;;;;;;;5030712;28;20045;-70
2023/04/15 10:49:11;;;;;;;15.55;9.77;;;;;;;;;;5025047;28;20134;-69
2023/04/15 10:51:45;;;;;;;15.18;9.05;;;;;;;;;;5033508;28;20073;-70
2023/04/15 10:54:15;;;;;;;15.25;8.07;;;;;;;;;;5036902;28;20108;-70
2023/04/15 10:56:42;;;;;;;16.73;8.90;;;;;;;;;;5034168;28;20762;-70
2023/04/15 10:59:08;;;;;;;14.73;8.27;;;;;;;;;;5036619;28;20045;-70
2023/04/15 11:01:55;;;;;;;17.20;9.18;;;;;;;;;;5038839;28;20103;-69
2023/04/15 11:04:58;;;;;;;16.35;8.48;;;;;;;;;;5028667;28;20099;-70
2023/04/15 11:07:34;;;;;;;15.48;8.45;;;;;;;;;;5042017;28;20051;-70
2023/04/15 11:10:00;;;;;;;14.20;7.78;;;;;;;;;;5039958;28;20041;-71
2023/04/15 11:12:35;;;;;;;16.50;8.27;;;;;;;;;;5038816;28;20045;-69
2023/04/15 11:15:29;;;;;;;15.10;8.30;;;;;;;;;;5037197;28;20017;-69
2023/04/15 11:18:07;;;;;;;11.40;6.45;;;;;;;;;;5039441;28;20069;-69
2023/04/15 11:20:32;;;;;;;10.45;6.07;;;;;;;;;;5032294;28;20034;-69
2023/04/15 11:22:58;;;;;;;11.38;5.28;;;;;;;;;;5041154;28;20102;-69
2023/04/15 11:25:25;;;;;;;8.10;4.93;;;;;;;;;;5041048;28;20067;-69
2023/04/15 11:27:53;;;;;;;10.95;5.82;;;;;;;;;;5042117;28;20029;-69
2023/04/15 11:30:24;;;;;;;10.57;5.88;;;;;;;;;;5027210;28;20422;-69
2023/04/15 11:32:50;;;;;;;12.85;6.78;;;;;;;;;;5030619;28;20140;-69
2023/04/15 11:35:17;;;;;;;9.38;6.43;;;;;;;;;;5038603;28;20058;-69
2023/04/15 11:37:48;;;;;;;9.93;5.82;;;;;;;;;;5033651;28;20068;-69
2023/04/15 11:40:16;;;;;;;10.27;5.57;;;;;;;;;;5040479;28;20025;-68
2023/04/15 11:42:42;;;;;;;10.63;5.55;;;;;;;;;;5045395;28;20043;-69
2023/04/15 11:45:13;;;;;;;7.53;4.57;;;;;;;;;;5046870;28;20502;-69
2023/04/15 11:47:39;;;;;;;9.63;4.82;;;;;;;;;;5044826;28;20062;-69
2023/04/15 11:50:18;;;;;;;8.05;4.85;;;;;;;;;;5033991;28;20099;-69
2023/04/15 11:53:01;;;;;;;6.68;4.43;;;;;;;;;;5036517;28;20124;-69
2023/04/15 11:55:26;;;;;;;7.78;4.57;;;;;;;;;;5037466;28;20025;-69
2023/04/15 11:58:28;;;;;;;9.93;5.07;;;;;;;;;;5039080;28;20036;-69
2023/04/15 12:00:58;;;;;;;8.80;4.97;;;;;;;;;;5034987;28;20039;-69
2023/04/15 12:03:29;;;;;;;7.88;4.40;;;;;;;;;;5038228;28;20398;-69
2023/04/15 12:06:19;;;;;;;6.47;3.97;;;;;;;;;;5038192;28;20036;-69
2023/04/15 12:08:54;;;;;;;9.93;3.10;;;;;;;;;;5036380;28;20053;-69
2023/04/15 12:11:26;;;;;;;8.65;4.20;;;;;;;;;;5035607;28;20052;-69
2023/04/15 12:13:56;;;;;;;8.27;4.35;;;;;;;;;;5043968;28;20029;-69
2023/04/15 12:16:23;;;;;;;10.32;5.53;;;;;;;;;;5043326;28;20040;-69
2023/04/15 12:18:56;;;;;;;7.30;5.00;;;;;;;;;;5034362;28;20152;-69
2023/04/15 12:21:23;;;;;;;9.48;4.63;;;;;;;;;;5024383;28;20521;-69
2023/04/15 12:23:50;;;;;;;4.80;3.38;;;;;;;;;;5058484;28;20043;-69
2023/04/15 12:26:16;;;;;;;5.65;3.85;;;;;;;;;;5028688;28;20068;-69
2023/04/15 12:28:42;;;;;;;8.27;4.40;;;;;;;;;;5030116;28;20076;-69
2023/04/15 12:31:12;;;;;;;7.90;4.63;;;;;;;;;;5031931;28;20503;-68
2023/04/15 12:33:38;;;;;;;7.97;3.47;;;;;;;;;;5035909;28;20737;-69
2023/04/15 12:36:03;;;;;;;6.82;2.47;;;;;;;;;;5042367;28;20032;-69
2023/04/15 12:38:30;;;;;;;7.63;3.47;;;;;;;;;;5027450;28;20407;-68
2023/04/15 12:40:55;;;;;;;4.13;2.75;;;;;;;;;;5027329;28;20067;-69
2023/04/15 12:43:21;;;;;;;6.07;2.70;;;;;;;;;;5036384;28;20041;-69
2023/04/15 12:45:46;;;;;;;5.95;3.40;;;;;;;;;;5036025;28;20041;-70
2023/04/15 12:48:11;;;;;;;6.55;4.00;;;;;;;;;;5025080;28;20030;-69
2023/04/15 12:50:37;;;;;;;4.32;3.17;;;;;;;;;;5024385;28;20632;-69
2023/04/15 12:53:02;;;;;;;5.40;3.50;;;;;;;;;;5037954;28;20586;-69
2023/04/15 12:55:29;;;;;;;4.78;3.30;;;;;;;;;;5033664;28;20053;-68
2023/04/15 12:57:55;;;;;;;6.30;3.30;;;;;;;;;;5042747;28;20037;-69
2023/04/15 13:00:20;;;;;;;7.90;3.83;;;;;;;;;;5040256;28;20621;-68
2023/04/15 13:02:46;;;;;;;6.28;3.50;;;;;;;;;;5041742;28;20024;-68
2023/04/15 13:05:13;;;;;;;6.70;3.95;;;;;;;;;;5042274;28;20091;-68
2023/04/15 13:07:39;;;;;;;6.05;3.40;;;;;;;;;;5035731;28;20063;-68
2023/04/15 13:10:05;;;;;;;4.93;3.28;;;;;;;;;;5043520;28;20074;-68
2023/04/15 13:12:30;;;;;;;5.68;3.40;;;;;;;;;;5037378;28;21595;-69
2023/04/15 13:14:55;;;;;;;6.93;3.58;;;;;;;;;;5041832;28;20020;-68
2023/04/15 13:17:21;;;;;;;4.47;2.88;;;;;;;;;;5038056;28;20068;-69
2023/04/15 13:19:46;;;;;;;5.53;3.00;;;;;;;;;;5035533;28;20529;-68
2023/04/15 13:22:11;;;;;;;3.65;2.40;;;;;;;;;;5034687;28;20064;-68
2023/04/15 13:24:38;;;;;;;3.83;2.55;;;;;;;;;;5038574;28;20040;-68
2023/04/15 13:27:04;;;;;;;7.20;3.30;;;;;;;;;;5038093;28;20124;-68
2023/04/15 13:29:29;;;;;;;3.85;2.70;;;;;;;;;;5038019;28;20136;-68
2023/04/15 13:31:55;;;;;;;4.32;3.00;;;;;;;;;;5040690;28;20041;-68
2023/04/15 13:34:20;;;;;;;6.13;2.90;;;;;;;;;;5034701;28;20048;-69
2023/04/15 13:36:46;;;;;;;3.97;2.40;;;;;;;;;;5041706;28;20033;-68
2023/04/15 13:39:11;;;;;;;4.25;2.80;;;;;;;;;;5039708;28;20021;-69
2023/04/15 13:41:37;;;;;;;4.55;2.60;;;;;;;;;;5040686;28;20037;-68
2023/04/15 13:44:03;;;;;;;5.80;3.15;;;;;;;;;;5040299;28;20039;-69
2023/04/15 13:46:29;;;;;;;5.28;3.13;;;;;;;;;;5034272;28;20049;-68
2023/04/15 13:48:54;;;;;;;4.70;3.30;;;;;;;;;;5036903;28;20063;-69
2023/04/15 13:51:20;;;;;;;6.95;3.25;;;;;;;;;;5043398;28;20434;-68
2023/04/15 13:53:45;;;;;;;5.47;3.05;;;;;;;;;;5041826;28;20120;-68
2023/04/15 13:56:11;;;;;;;5.88;3.00;;;;;;;;;;5043040;28;20048;-69
2023/04/15 13:58:37;;;;;;;3.95;2.53;;;;;;;;;;5038169;28;20076;-69
2023/04/15 14:01:03;;;;;;;4.25;2.20;;;;;;;;;;5040340;28;20037;-68
2023/04/15 14:03:28;;;;;;;5.53;2.65;;;;;;;;;;5035777;28;20562;-68
2023/04/15 14:05:55;;;;;;;3.33;2.22;;;;;;;;;;5040052;28;20033;-69
2023/04/15 14:08:21;;;;;;;5.20;3.10;;;;;;;;;;5043762;28;20029;-69
2023/04/15 14:10:50;;;;;;;5.75;3.55;;;;;;;;;;5045851;28;20585;-69
2023/04/15 14:13:15;;;;;;;6.95;4.13;;;;;;;;;;5032740;28;20041;-68
2023/04/15 14:15:40;;;;;;;7.18;3.72;;;;;;;;;;5042483;28;20075;-69
2023/04/15 14:18:06;;;;;;;5.18;3.03;;;;;;;;;;5038962;28;20025;-69
2023/04/15 14:20:32;;;;;;;3.92;2.83;;;;;;;;;;5035851;28;20041;-69
2023/04/15 14:22:57;;;;;;;5.82;2.38;;;;;;;;;;5035097;28;20045;-68
2023/04/15 14:25:22;;;;;;;6.40;3.45;;;;;;;;;;5042849;28;20052;-68
2023/04/15 14:27:48;;;;;;;3.58;2.55;;;;;;;;;;5047311;28;20044;-68
2023/04/15 14:30:13;;;;;;;4.57;2.75;;;;;;;;;;5048771;28;20036;-69
2023/04/15 14:32:39;;;;;;;5.43;2.80;;;;;;;;;;5042514;28;20037;-68
2023/04/15 14:35:04;;;;;;;3.10;2.22;;;;;;;;;;5041074;28;20132;-69